aviador You're here:

LFMO Decoded Metar

ORANGE in FRANCE
Report Time2018-07-20 19:30:00
UTC Time2018-07-20 19:54:47
Flight Rules vfr VFR
Wind320° at 05 kt
W.Decomp.*RWY 32: 5.0 kt HW 0 kt LCW
W.Rank320° ranks 5
Current wind is below 320° avg. (7.1)
Visibility9999 m
Phenomena:Shower Rain
Clouds:Scattered 068 Hf
Broken 140 Hf
Expected CloudBase > 2,800 ft AGL from Temp-Dew spread
Ceiling14,000 ft
Temp25°C (ISA +10)
Dew Point18°C (65% RH)
QNH1011 hPa
Density Alt1,719 ft
Elevation180 ft
Report Wrong Elevation
Raw Report
LFMO 201930Z AUTO 32005KT 9999 SCT068 BKN140 25/18 Q1011 TEMPO
4000 SHRA BKN070TCU=

Extra information for LFMO:More info

Metar Taf Metar & Taf Last 4 Metars F.Rules Stats Wind Profile Meteogram Temp Stats Airport Information Weather charts Add Link Nearby VenuesMetar ALERT Operation Metar Decoded Social comments